Airfield :
LOGIN :

Register | Disclaimer

   EN    FR    IT 

 










Legend :    VFR   Marginal VFR   IFR   Intensive IFR   Very Intensive IFR
Visi :
Ceiling :
>= 8 km
>= 3000ft
5 to 8 km
1000 to 3000 ft
1500m to 5 km
500 to 1000 ft
800 to 1500m
200 to 500 ft
< 800m
< 200 ft
Symbols :   Thunderstorms  Fog  Heavy snow  Heavy precipitations  Wind > 20 kt
SIGMETs :     Misc.  Thunderstorms  Icing  Turbulence  Mountain Waves  Volcanic Ashes






- Airport Elevation : 390 ft
- IATA code : NQY


EGHQ - Newquay

CURRENT METAR :
  • 281620Z 14015KT CAVOK 19/09 Q1029

EXPIRED METARs :
  • 281550Z 14015KT CAVOK 19/10 Q1029
  • 281520Z 13015KT CAVOK 20/09 Q1029
  • 281450Z 13015KT CAVOK 20/09 Q1030
  • 281420Z 12014KT CAVOK 21/10 Q1030
  • 281350Z 11014KT 070V140 CAVOK 22/11 Q1030
  • 281320Z 11014KT 080V140 CAVOK 21/11 Q1030

TAF TAF EGHQ
Valid from the 28 at 15:00 until the 29 at 00:00 UTC


281404Z 2815/2824 12018KT CAVOK
PROB30
TEMPO 2815/2824 13021G31KT



MET'MAP, your aeronautical weather chart ! - Copyright ORBIFLY December 2007 - Disclaimer

ORBIFLY MET'MAP TEAM :

Programming & Development : Alexandra Zaïnal
Concept & original design : Baudouin d'Aumeries
Assistance for programming : Marc-Olivier Méhu
Technical & hardware support : Manuel Goepfert

Contact : metmap@orbifly.com




SOURCES & CREDITS :

   NOAA